createdAt,value
2023-06-14T00:00:17.072Z,94048.00
2023-06-14T00:01:16.796Z,94050.00
2023-06-14T00:02:16.821Z,94052.00
2023-06-14T00:03:16.790Z,94052.00
2023-06-14T00:04:16.784Z,94052.00
2023-06-14T00:05:16.754Z,94052.00
2023-06-14T00:06:16.749Z,94054.00
2023-06-14T00:07:16.757Z,94054.00
2023-06-14T00:08:16.727Z,94054.00
2023-06-14T00:09:16.716Z,94054.00
2023-06-14T00:10:17.004Z,94052.00
2023-06-14T00:11:16.730Z,94056.00
2023-06-14T00:12:16.692Z,94052.00
2023-06-14T00:13:16.706Z,94052.00
2023-06-14T00:14:16.684Z,94054.00
2023-06-14T00:15:16.691Z,94052.00
2023-06-14T00:16:16.709Z,94054.00
2023-06-14T00:17:16.708Z,94056.00
2023-06-14T00:18:16.664Z,94056.00
2023-06-14T00:19:16.664Z,94054.00
2023-06-14T00:20:16.885Z,94050.00
2023-06-14T00:21:16.671Z,94052.00
2023-06-14T00:22:16.626Z,94050.00
2023-06-14T00:23:16.614Z,94052.00
2023-06-14T00:24:16.754Z,94054.00
2023-06-14T00:25:28.872Z,94052.00
2023-06-14T00:26:17.634Z,94054.00
2023-06-14T00:27:16.625Z,94054.00
2023-06-14T00:28:16.598Z,94054.00
2023-06-14T00:29:16.602Z,94048.00
2023-06-14T00:30:16.729Z,94048.00
2023-06-14T00:31:16.578Z,94050.00
2023-06-14T00:32:16.657Z,94046.00
2023-06-14T00:33:16.661Z,94048.00
2023-06-14T00:34:16.583Z,94046.00
2023-06-14T00:35:16.552Z,94046.00
2023-06-14T00:36:16.554Z,94044.00
2023-06-14T00:37:16.538Z,94044.00
2023-06-14T00:38:16.570Z,94044.00
2023-06-14T00:39:16.550Z,94044.00
2023-06-14T00:40:16.714Z,94046.00
2023-06-14T00:41:16.531Z,94044.00
2023-06-14T00:42:16.528Z,94040.00
2023-06-14T00:43:16.499Z,94038.00
2023-06-14T00:44:16.508Z,94038.00
2023-06-14T00:45:16.507Z,94038.00
2023-06-14T00:46:16.554Z,94038.00
2023-06-14T00:47:16.473Z,94038.00
2023-06-14T00:48:16.495Z,94038.00
2023-06-14T00:49:16.457Z,94040.00
2023-06-14T00:50:16.563Z,94040.00
2023-06-14T00:51:16.467Z,94040.00
2023-06-14T00:52:16.457Z,94038.00
2023-06-14T00:53:16.432Z,94044.00
2023-06-14T00:54:16.432Z,94042.00
2023-06-14T00:55:16.458Z,94044.00
2023-06-14T00:56:16.457Z,94046.00
2023-06-14T00:57:16.492Z,94046.00
2023-06-14T00:58:16.504Z,94046.00
2023-06-14T00:59:16.556Z,94046.00
2023-06-14T01:00:16.823Z,94044.00
2023-06-14T01:01:16.540Z,94048.00
2023-06-14T01:02:16.588Z,94046.00
2023-06-14T01:03:16.610Z,94048.00
2023-06-14T01:04:16.624Z,94050.00
2023-06-14T01:05:16.570Z,94050.00
2023-06-14T01:06:16.615Z,94054.00
2023-06-14T01:07:16.614Z,94052.00
2023-06-14T01:08:16.638Z,94052.00
2023-06-14T01:09:16.645Z,94052.00
2023-06-14T01:10:16.938Z,94054.00
2023-06-14T01:11:16.693Z,94054.00
2023-06-14T01:12:16.683Z,94054.00
2023-06-14T01:13:16.688Z,94056.00
2023-06-14T01:14:16.747Z,94054.00
2023-06-14T01:15:16.751Z,94054.00
2023-06-14T01:16:16.790Z,94054.00
2023-06-14T01:17:16.771Z,94054.00
2023-06-14T01:18:16.766Z,94052.00
2023-06-14T01:19:16.797Z,94052.00
2023-06-14T01:20:16.816Z,94056.00
2023-06-14T01:21:16.840Z,94056.00
2023-06-14T01:22:16.847Z,94054.00
2023-06-14T01:23:16.867Z,94054.00
2023-06-14T01:24:16.950Z,94050.00
2023-06-14T01:25:16.914Z,94054.00
2023-06-14T01:26:16.924Z,94054.00
2023-06-14T01:27:16.976Z,94054.00
2023-06-14T01:28:16.975Z,94054.00
2023-06-14T01:29:16.979Z,94052.00
2023-06-14T01:30:17.275Z,94052.00
2023-06-14T01:31:17.012Z,94052.00
2023-06-14T01:32:17.017Z,94052.00
2023-06-14T01:33:17.042Z,94050.00
2023-06-14T01:34:17.072Z,94050.00
2023-06-14T01:35:17.222Z,94050.00
2023-06-14T01:36:17.096Z,94050.00
2023-06-14T01:37:17.101Z,94048.00
2023-06-14T01:38:17.122Z,94050.00
2023-06-14T01:39:17.150Z,94050.00
2023-06-14T01:40:17.547Z,94050.00
2023-06-14T01:41:17.174Z,94046.00
2023-06-14T01:42:17.189Z,94046.00
2023-06-14T01:43:17.190Z,94050.00
2023-06-14T01:44:17.218Z,94046.00
2023-06-14T01:45:17.230Z,94046.00
2023-06-14T01:46:17.284Z,94046.00
2023-06-14T01:47:17.272Z,94046.00
2023-06-14T01:48:17.288Z,94044.00
2023-06-14T01:49:17.309Z,94044.00
2023-06-14T01:50:17.559Z,94042.00
2023-06-14T01:51:17.326Z,94046.00
2023-06-14T01:52:17.360Z,94042.00
2023-06-14T01:53:17.381Z,94044.00
2023-06-14T01:54:17.405Z,94042.00
2023-06-14T01:55:17.437Z,94044.00
2023-06-14T01:56:17.445Z,94044.00
2023-06-14T01:57:17.462Z,94046.00
2023-06-14T01:58:17.489Z,94046.00
2023-06-14T01:59:17.495Z,94046.00
2023-06-14T02:00:17.735Z,94044.00
2023-06-14T02:01:17.650Z,94042.00
2023-06-14T02:02:17.574Z,94040.00
2023-06-14T02:03:17.577Z,94040.00
2023-06-14T02:04:17.600Z,94040.00
2023-06-14T02:05:17.698Z,94040.00
2023-06-14T02:06:17.657Z,94044.00
2023-06-14T02:07:17.750Z,94042.00
2023-06-14T02:08:17.681Z,94046.00
2023-06-14T02:09:17.700Z,94046.00
2023-06-14T02:10:17.899Z,94048.00
2023-06-14T02:11:17.770Z,94048.00
2023-06-14T02:12:17.788Z,94048.00
2023-06-14T02:13:17.823Z,94044.00
2023-06-14T02:14:17.830Z,94048.00
2023-06-14T02:15:17.895Z,94048.00
2023-06-14T02:16:17.907Z,94046.00
2023-06-14T02:17:17.918Z,94044.00
2023-06-14T02:18:17.941Z,94042.00
2023-06-14T02:19:17.968Z,94044.00
2023-06-14T02:20:18.131Z,94044.00
2023-06-14T02:21:18.025Z,94044.00
2023-06-14T02:22:18.050Z,94044.00
2023-06-14T02:23:18.088Z,94046.00
2023-06-14T02:24:18.152Z,94046.00
2023-06-14T02:25:18.153Z,94044.00
2023-06-14T02:26:18.160Z,94040.00
2023-06-14T02:27:18.177Z,94044.00
2023-06-14T02:28:18.207Z,94044.00
2023-06-14T02:29:18.234Z,94044.00
2023-06-14T02:30:18.533Z,94042.00
2023-06-14T02:31:18.321Z,94044.00
2023-06-14T02:32:18.315Z,94040.00
2023-06-14T02:33:18.358Z,94044.00
2023-06-14T02:34:18.388Z,94042.00
2023-06-14T02:35:18.432Z,94044.00
2023-06-14T02:36:18.462Z,94042.00
2023-06-14T02:37:18.525Z,94046.00
2023-06-14T02:38:18.523Z,94044.00
2023-06-14T02:39:18.535Z,94046.00
2023-06-14T02:40:18.830Z,94042.00
2023-06-14T02:41:18.604Z,94046.00
2023-06-14T02:42:18.633Z,94048.00
2023-06-14T02:43:18.686Z,94048.00
2023-06-14T02:44:18.690Z,94048.00
2023-06-14T02:45:18.729Z,94050.00
2023-06-14T02:46:18.761Z,94046.00
2023-06-14T02:47:18.828Z,94052.00
2023-06-14T02:48:18.880Z,94048.00
2023-06-14T02:49:18.870Z,94048.00
2023-06-14T02:50:18.899Z,94048.00
2023-06-14T02:51:18.915Z,94050.00
2023-06-14T02:52:18.943Z,94050.00
2023-06-14T02:53:19.028Z,94050.00
2023-06-14T02:54:19.027Z,94052.00
2023-06-14T02:55:19.042Z,94050.00
2023-06-14T02:56:19.088Z,94052.00
2023-06-14T02:57:19.121Z,94054.00
2023-06-14T02:58:19.166Z,94054.00
2023-06-14T02:59:19.176Z,94052.00
2023-06-14T03:00:19.527Z,94054.00
2023-06-14T03:01:19.339Z,94054.00
2023-06-14T03:02:19.312Z,94054.00
2023-06-14T03:03:19.444Z,94054.00
2023-06-14T03:04:19.387Z,94052.00
2023-06-14T03:05:19.427Z,94054.00
2023-06-14T03:06:19.451Z,94052.00
2023-06-14T03:07:19.493Z,94054.00
2023-06-14T03:08:19.557Z,94054.00
2023-06-14T03:09:19.585Z,94054.00
2023-06-14T03:10:19.653Z,94056.00
2023-06-14T03:11:19.657Z,94056.00
2023-06-14T03:12:19.692Z,94058.00
2023-06-14T03:13:19.731Z,94058.00
2023-06-14T03:14:19.779Z,94060.00
2023-06-14T03:15:19.800Z,94060.00
2023-06-14T03:16:19.878Z,94058.00
2023-06-14T03:17:19.878Z,94062.00
2023-06-14T03:18:19.927Z,94060.00
2023-06-14T03:19:19.961Z,94060.00
2023-06-14T03:20:19.997Z,94064.00
2023-06-14T03:21:20.033Z,94064.00
2023-06-14T03:22:20.077Z,94062.00
2023-06-14T03:23:20.132Z,94065.00
2023-06-14T03:24:20.179Z,94067.00
2023-06-14T03:25:20.202Z,94064.00
2023-06-14T03:26:20.247Z,94065.00
2023-06-14T03:27:20.260Z,94065.00
2023-06-14T03:28:20.302Z,94065.00
2023-06-14T03:29:20.376Z,94067.00
2023-06-14T03:30:20.406Z,94067.00
2023-06-14T03:31:20.631Z,94069.00
2023-06-14T03:32:20.461Z,94071.00
2023-06-14T03:33:20.484Z,94073.00
2023-06-14T03:34:20.525Z,94071.00
2023-06-14T03:35:20.581Z,94075.00
2023-06-14T03:36:20.621Z,94075.00
2023-06-14T03:37:20.646Z,94077.00
2023-06-14T03:38:20.700Z,94079.00
2023-06-14T03:39:20.733Z,94081.00
2023-06-14T03:40:20.776Z,94081.00
2023-06-14T03:41:20.821Z,94083.00
2023-06-14T03:42:20.865Z,94083.00
2023-06-14T03:43:20.942Z,94085.00
2023-06-14T03:44:20.953Z,94085.00
2023-06-14T03:45:20.983Z,94087.00
2023-06-14T03:46:21.034Z,94087.00
2023-06-14T03:47:21.162Z,94089.00
2023-06-14T03:48:21.194Z,94089.00
2023-06-14T03:49:21.155Z,94089.00
2023-06-14T03:50:21.171Z,94089.00
2023-06-14T03:51:21.229Z,94091.00
2023-06-14T03:52:21.258Z,94091.00
2023-06-14T03:53:21.283Z,94093.00
2023-06-14T03:56:21.322Z,94093.00
2023-06-14T03:57:21.305Z,94093.00
2023-06-14T03:58:21.286Z,94097.00
2023-06-14T03:59:21.307Z,94093.00
2023-06-14T04:00:21.289Z,94095.00
2023-06-14T04:01:21.270Z,94097.00
2023-06-14T04:02:21.394Z,94097.00
2023-06-14T04:03:21.341Z,94099.00
2023-06-14T04:04:21.260Z,94101.00
2023-06-14T04:05:21.275Z,94099.00
2023-06-14T04:06:21.248Z,94099.00
2023-06-14T04:07:21.250Z,94099.00
2023-06-14T04:08:21.229Z,94101.00
2023-06-14T04:09:21.231Z,94099.00
2023-06-14T04:10:21.239Z,94101.00
2023-06-14T04:11:21.211Z,94103.00
2023-06-14T04:12:21.210Z,94101.00
2023-06-14T04:13:21.202Z,94103.00
2023-06-14T04:14:21.228Z,94105.00
2023-06-14T04:15:22.123Z,94105.00
2023-06-14T04:16:21.201Z,94105.00
2023-06-14T04:17:21.197Z,94107.00
2023-06-14T04:18:23.964Z,94109.00
2023-06-14T04:19:21.174Z,94107.00
2023-06-14T04:20:21.161Z,94107.00
2023-06-14T04:21:21.165Z,94105.00
2023-06-14T04:22:21.137Z,94109.00
2023-06-14T04:23:21.125Z,94109.00
2023-06-14T04:24:21.144Z,94109.00
2023-06-14T04:25:23.978Z,94116.00
2023-06-14T04:26:21.130Z,94116.00
2023-06-14T04:27:21.102Z,94116.00
2023-06-14T04:28:21.114Z,94118.00
2023-06-14T04:29:21.093Z,94118.00
2023-06-14T04:30:21.076Z,94118.00
2023-06-14T04:31:21.076Z,94118.00
2023-06-14T04:32:21.122Z,94118.00
2023-06-14T04:33:21.153Z,94120.00
2023-06-14T04:34:21.060Z,94120.00
2023-06-14T04:35:21.038Z,94120.00
2023-06-14T04:36:21.068Z,94122.00
2023-06-14T04:37:21.029Z,94124.00
2023-06-14T04:38:21.032Z,94122.00
2023-06-14T04:39:21.020Z,94124.00
2023-06-14T04:40:21.016Z,94126.00
2023-06-14T04:41:21.023Z,94124.00
2023-06-14T04:42:21.014Z,94124.00
2023-06-14T04:43:21.021Z,94122.00
2023-06-14T04:44:20.993Z,94134.00
2023-06-14T04:45:21.000Z,94134.00
2023-06-14T04:46:21.013Z,94142.00
2023-06-14T04:47:20.981Z,94142.00
2023-06-14T04:48:20.972Z,94144.00
2023-06-14T04:49:20.986Z,94146.00
2023-06-14T04:50:20.960Z,94144.00
2023-06-14T04:51:20.945Z,94146.00
2023-06-14T04:52:20.954Z,94146.00
2023-06-14T04:53:20.931Z,94146.00
2023-06-14T04:54:20.944Z,94148.00
2023-06-14T04:55:20.947Z,94144.00
2023-06-14T04:56:20.915Z,94140.00
2023-06-14T04:57:20.918Z,94144.00
2023-06-14T04:58:20.907Z,94144.00
2023-06-14T04:59:20.903Z,94144.00
2023-06-14T05:00:20.890Z,94144.00
2023-06-14T05:01:20.969Z,94144.00
2023-06-14T05:02:20.952Z,94146.00
2023-06-14T05:03:20.964Z,94146.00
2023-06-14T05:04:20.872Z,94146.00
2023-06-14T05:05:20.874Z,94144.00
2023-06-14T05:06:20.886Z,94146.00
2023-06-14T05:07:20.847Z,94148.00
2023-06-14T05:08:20.838Z,94146.00
2023-06-14T05:09:20.848Z,94146.00
2023-06-14T05:10:20.833Z,94148.00
2023-06-14T05:11:20.809Z,94148.00
2023-06-14T05:12:20.813Z,94148.00
2023-06-14T05:13:20.808Z,94146.00
2023-06-14T05:14:20.790Z,94150.00
2023-06-14T05:15:20.791Z,94146.00
2023-06-14T05:16:20.835Z,94150.00
2023-06-14T05:17:20.807Z,94150.00
2023-06-14T05:18:20.777Z,94150.00
2023-06-14T05:19:20.764Z,94150.00
2023-06-14T05:20:20.745Z,94150.00
2023-06-14T05:21:20.754Z,94148.00
2023-06-14T05:22:20.745Z,94150.00
2023-06-14T05:23:20.727Z,94148.00
2023-06-14T05:24:20.749Z,94148.00
2023-06-14T05:25:20.735Z,94148.00
2023-06-14T05:26:20.737Z,94144.00
2023-06-14T05:27:20.802Z,94144.00
2023-06-14T05:28:20.702Z,94142.00
2023-06-14T05:29:20.684Z,94144.00
2023-06-14T05:30:20.688Z,94146.00
2023-06-14T05:31:20.722Z,94146.00
2023-06-14T05:32:20.672Z,94150.00
2023-06-14T05:33:20.831Z,94152.00
2023-06-14T05:34:20.657Z,94150.00
2023-06-14T05:35:20.637Z,94156.00
2023-06-14T05:36:20.637Z,94156.00
2023-06-14T05:37:20.639Z,94152.00
2023-06-14T05:38:20.631Z,94156.00
2023-06-14T05:39:20.642Z,94156.00
2023-06-14T05:40:20.633Z,94159.00
2023-06-14T05:41:20.643Z,94157.00
2023-06-14T05:42:20.591Z,94161.00
2023-06-14T05:43:21.543Z,94163.00
2023-06-14T05:44:20.597Z,94163.00
2023-06-14T05:45:20.583Z,94165.00
2023-06-14T05:46:20.647Z,94163.00
2023-06-14T05:47:20.578Z,94165.00
2023-06-14T05:48:20.597Z,94165.00
2023-06-14T05:49:20.550Z,94163.00
2023-06-14T05:50:20.567Z,94165.00
2023-06-14T05:51:20.595Z,94163.00
2023-06-14T05:52:20.555Z,94161.00
2023-06-14T05:53:20.557Z,94163.00
2023-06-14T05:54:20.516Z,94165.00
2023-06-14T05:55:20.518Z,94165.00
2023-06-14T05:56:20.513Z,94167.00
2023-06-14T05:57:20.520Z,94163.00
2023-06-14T05:58:20.508Z,94165.00
2023-06-14T05:59:20.533Z,94169.00
2023-06-14T06:00:20.518Z,94163.00
2023-06-14T06:01:20.472Z,94167.00
2023-06-14T06:02:20.595Z,94165.00
2023-06-14T06:03:20.733Z,94163.00
2023-06-14T06:04:20.726Z,94165.00
2023-06-14T06:05:20.684Z,94161.00
2023-06-14T06:06:20.735Z,94163.00
2023-06-14T06:07:20.745Z,94167.00
2023-06-14T06:08:20.786Z,94163.00
2023-06-14T06:09:20.822Z,94165.00
2023-06-14T06:10:20.877Z,94167.00
2023-06-14T06:11:20.956Z,94165.00
2023-06-14T06:12:20.977Z,94163.00
2023-06-14T06:13:21.017Z,94165.00
2023-06-14T06:14:21.066Z,94163.00
2023-06-14T06:15:21.087Z,94165.00
2023-06-14T06:16:21.191Z,94167.00
2023-06-14T06:17:21.205Z,94163.00
2023-06-14T06:18:21.288Z,94161.00
2023-06-14T06:19:21.316Z,94161.00
2023-06-14T06:20:21.307Z,94161.00
2023-06-14T06:21:21.661Z,94161.00
2023-06-14T06:22:21.644Z,94161.00
2023-06-14T06:23:21.380Z,94159.00
2023-06-14T06:24:21.449Z,94159.00
2023-06-14T06:25:21.454Z,94161.00
2023-06-14T06:26:21.474Z,94157.00
2023-06-14T06:27:21.513Z,94156.00
2023-06-14T06:28:21.560Z,94157.00
2023-06-14T06:29:21.552Z,94157.00
2023-06-14T06:30:21.615Z,94159.00
2023-06-14T06:31:21.652Z,94159.00
2023-06-14T06:32:21.654Z,94157.00
2023-06-14T06:33:21.667Z,94159.00
2023-06-14T06:34:21.658Z,94161.00
2023-06-14T06:35:21.680Z,94161.00
2023-06-14T06:36:21.713Z,94161.00
2023-06-14T06:37:21.771Z,94161.00
2023-06-14T06:38:21.755Z,94163.00
2023-06-14T06:39:21.768Z,94161.00
2023-06-14T06:40:21.850Z,94161.00
2023-06-14T06:41:22.148Z,94163.00
2023-06-14T06:42:21.870Z,94163.00
2023-06-14T06:43:21.887Z,94163.00
2023-06-14T06:44:21.922Z,94165.00
2023-06-14T06:45:23.637Z,94163.00
2023-06-14T06:46:22.183Z,94163.00
2023-06-14T06:47:21.942Z,94161.00
2023-06-14T06:48:21.963Z,94165.00
2023-06-14T06:49:21.911Z,94161.00
2023-06-14T06:50:21.903Z,94167.00
2023-06-14T06:51:21.910Z,94167.00
2023-06-14T06:52:21.899Z,94163.00
2023-06-14T06:53:34.812Z,94163.00
2023-06-14T06:54:22.869Z,94165.00
2023-06-14T06:55:21.881Z,94167.00
2023-06-14T06:56:21.870Z,94163.00
2023-06-14T06:57:21.854Z,94163.00
2023-06-14T06:58:21.863Z,94163.00
2023-06-14T06:59:21.836Z,94163.00
2023-06-14T07:00:21.854Z,94163.00
2023-06-14T07:01:21.919Z,94161.00
2023-06-14T07:02:21.917Z,94161.00
2023-06-14T07:03:21.812Z,94161.00
2023-06-14T07:04:21.839Z,94157.00
2023-06-14T07:05:21.847Z,94157.00
2023-06-14T07:06:21.817Z,94156.00
2023-06-14T07:07:22.144Z,94154.00
2023-06-14T07:08:21.777Z,94154.00
2023-06-14T07:09:21.772Z,94154.00
2023-06-14T07:10:21.763Z,94156.00
2023-06-14T07:11:21.770Z,94154.00
2023-06-14T07:12:21.790Z,94150.00
2023-06-14T07:13:21.767Z,94148.00
2023-06-14T07:14:21.749Z,94152.00
2023-06-14T07:15:21.764Z,94152.00
2023-06-14T07:16:21.763Z,94148.00
2023-06-14T07:17:21.759Z,94152.00
2023-06-14T07:18:21.728Z,94154.00
2023-06-14T07:19:21.744Z,94154.00
2023-06-14T07:20:21.757Z,94154.00
2023-06-14T07:21:21.737Z,94152.00
2023-06-14T07:22:21.745Z,94157.00
2023-06-14T07:23:21.760Z,94152.00
2023-06-14T07:24:21.850Z,94152.00
2023-06-14T07:25:21.754Z,94152.00
2023-06-14T07:26:21.746Z,94154.00
2023-06-14T07:27:22.155Z,94150.00
2023-06-14T07:28:21.802Z,94152.00
2023-06-14T07:29:21.844Z,94152.00
2023-06-14T07:30:21.877Z,94144.00
2023-06-14T07:31:21.866Z,94146.00
2023-06-14T07:32:21.982Z,94146.00
2023-06-14T07:33:22.029Z,94146.00
2023-06-14T07:34:21.930Z,94146.00
2023-06-14T07:35:21.955Z,94142.00
2023-06-14T07:36:21.995Z,94144.00
2023-06-14T07:37:22.048Z,94142.00
2023-06-14T07:38:22.116Z,94140.00
2023-06-14T07:39:22.097Z,94136.00
2023-06-14T07:40:22.097Z,94136.00
2023-06-14T07:41:23.113Z,94134.00
2023-06-14T07:42:22.142Z,94134.00
2023-06-14T07:43:23.005Z,94126.00
2023-06-14T07:44:22.210Z,94124.00
2023-06-14T07:45:22.277Z,94126.00
2023-06-14T07:46:22.308Z,94134.00
2023-06-14T07:47:22.483Z,94124.00
2023-06-14T07:48:22.503Z,94124.00
2023-06-14T07:49:22.504Z,94126.00
2023-06-14T07:50:22.538Z,94126.00
2023-06-14T07:51:22.583Z,94126.00
2023-06-14T07:52:23.198Z,94126.00
2023-06-14T07:53:22.706Z,94124.00
2023-06-14T07:54:22.784Z,94126.00
2023-06-14T07:55:22.841Z,94134.00
2023-06-14T07:56:22.890Z,94126.00
2023-06-14T07:57:23.161Z,94120.00
2023-06-14T07:58:22.980Z,94122.00
2023-06-14T07:59:23.019Z,94124.00
2023-06-14T08:00:23.072Z,94120.00
2023-06-14T08:01:23.116Z,94122.00
2023-06-14T08:02:23.205Z,94120.00
2023-06-14T08:03:23.292Z,94118.00
2023-06-14T08:04:23.265Z,94120.00
2023-06-14T08:05:23.330Z,94118.00
2023-06-14T08:06:23.418Z,94120.00
2023-06-14T08:07:23.468Z,94116.00
2023-06-14T08:08:23.488Z,94112.00
2023-06-14T08:09:23.543Z,94120.00
2023-06-14T08:10:23.609Z,94118.00
2023-06-14T08:11:23.657Z,94114.00
2023-06-14T08:12:24.192Z,94109.00
2023-06-14T08:13:23.740Z,94107.00
2023-06-14T08:14:23.749Z,94105.00
2023-06-14T08:15:23.767Z,94109.00
2023-06-14T08:16:23.855Z,94107.00
2023-06-14T08:17:24.202Z,94103.00
2023-06-14T08:18:23.819Z,94107.00
2023-06-14T08:19:23.824Z,94109.00
2023-06-14T08:20:23.831Z,94103.00
2023-06-14T08:21:23.848Z,94105.00
2023-06-14T08:22:24.156Z,94105.00
2023-06-14T08:23:23.862Z,94101.00
2023-06-14T08:24:24.007Z,94101.00
2023-06-14T08:25:23.881Z,94101.00
2023-06-14T08:26:23.865Z,94099.00
2023-06-14T08:27:23.886Z,94099.00
2023-06-14T08:28:23.890Z,94099.00
2023-06-14T08:29:23.869Z,94097.00
2023-06-14T08:30:23.926Z,94093.00
2023-06-14T08:31:23.861Z,94097.00
2023-06-14T08:32:23.896Z,94095.00
2023-06-14T08:33:23.955Z,94101.00
2023-06-14T08:34:23.901Z,94095.00
2023-06-14T08:35:24.018Z,94093.00
2023-06-14T08:36:23.950Z,94091.00
2023-06-14T08:37:24.170Z,94095.00
2023-06-14T08:38:23.879Z,94093.00
2023-06-14T08:39:23.904Z,94091.00
2023-06-14T08:40:23.903Z,94091.00
2023-06-14T08:41:23.892Z,94093.00
2023-06-14T08:42:31.574Z,94089.00
2023-06-14T08:43:24.889Z,94093.00
2023-06-14T08:44:23.885Z,94089.00
2023-06-14T08:45:26.656Z,94091.00
2023-06-14T08:46:23.870Z,94089.00
2023-06-14T08:47:23.889Z,94087.00
2023-06-14T08:48:23.858Z,94087.00
2023-06-14T08:49:23.854Z,94095.00
2023-06-14T08:50:28.387Z,94089.00
2023-06-14T08:51:24.834Z,94085.00
2023-06-14T08:52:24.173Z,94085.00
2023-06-14T08:53:23.829Z,94087.00
2023-06-14T08:54:23.808Z,94083.00
2023-06-14T08:55:23.826Z,94081.00
2023-06-14T08:56:23.820Z,94083.00
2023-06-14T08:57:23.788Z,94079.00
2023-06-14T08:58:23.814Z,94083.00
2023-06-14T08:59:23.792Z,94081.00
2023-06-14T09:00:23.794Z,94075.00
2023-06-14T09:01:23.831Z,94075.00
2023-06-14T09:02:23.822Z,94081.00
2023-06-14T09:03:23.792Z,94079.00
2023-06-14T09:04:23.743Z,94081.00
2023-06-14T09:05:23.746Z,94079.00
2023-06-14T09:06:23.757Z,94077.00
2023-06-14T09:07:23.721Z,94073.00
2023-06-14T09:08:23.736Z,94073.00
2023-06-14T09:09:23.749Z,94083.00
2023-06-14T09:10:24.019Z,94073.00
2023-06-14T09:11:23.762Z,94073.00
2023-06-14T09:12:24.168Z,94077.00
2023-06-14T09:13:23.746Z,94079.00
2023-06-14T09:14:23.754Z,94075.00
2023-06-14T09:15:23.759Z,94073.00
2023-06-14T09:16:23.808Z,94069.00
2023-06-14T09:17:24.166Z,94065.00
2023-06-14T09:18:23.776Z,94069.00
2023-06-14T09:19:23.799Z,94065.00
2023-06-14T09:20:23.841Z,94065.00
2023-06-14T09:21:23.838Z,94069.00
2023-06-14T09:22:23.868Z,94067.00
2023-06-14T09:23:23.928Z,94069.00
2023-06-14T09:24:23.989Z,94064.00
2023-06-14T09:25:37.978Z,94067.00
2023-06-14T09:26:24.960Z,94073.00
2023-06-14T09:27:24.195Z,94064.00
2023-06-14T09:28:23.984Z,94067.00
2023-06-14T09:29:23.973Z,94064.00
2023-06-14T09:30:23.949Z,94064.00
2023-06-14T09:31:24.011Z,94069.00
2023-06-14T09:32:24.237Z,94065.00
2023-06-14T09:33:23.953Z,94064.00
2023-06-14T09:34:23.931Z,94060.00
2023-06-14T09:35:23.923Z,94064.00
2023-06-14T09:36:23.980Z,94062.00
2023-06-14T09:37:23.953Z,94060.00
2023-06-14T09:38:23.994Z,94058.00
2023-06-14T09:39:24.065Z,94056.00
2023-06-14T09:40:24.118Z,94056.00
2023-06-14T09:41:24.175Z,94058.00
2023-06-14T09:42:24.728Z,94056.00
2023-06-14T09:43:24.283Z,94062.00
2023-06-14T09:44:24.349Z,94058.00
2023-06-14T09:45:24.404Z,94060.00
2023-06-14T09:46:24.443Z,94056.00
2023-06-14T09:47:24.704Z,94058.00
2023-06-14T09:48:24.655Z,94052.00
2023-06-14T09:49:24.710Z,94050.00
2023-06-14T09:50:24.660Z,94054.00
2023-06-14T09:51:24.701Z,94048.00
2023-06-14T09:52:24.790Z,94046.00
2023-06-14T09:53:24.802Z,94050.00
2023-06-14T09:54:24.871Z,94042.00
2023-06-14T09:55:24.938Z,94046.00
2023-06-14T09:56:25.000Z,94040.00
2023-06-14T09:57:25.180Z,94042.00
2023-06-14T09:58:25.091Z,94042.00
2023-06-14T09:59:25.153Z,94050.00
2023-06-14T10:00:25.183Z,94040.00
2023-06-14T10:01:25.296Z,94038.00
2023-06-14T10:02:25.310Z,94038.00
2023-06-14T10:03:25.658Z,94032.00
2023-06-14T10:04:25.327Z,94040.00
2023-06-14T10:05:25.379Z,94030.00
2023-06-14T10:06:25.368Z,94034.00
2023-06-14T10:07:25.369Z,94030.00
2023-06-14T10:08:25.401Z,94032.00
2023-06-14T10:09:25.446Z,94028.00
2023-06-14T10:10:25.453Z,94032.00
2023-06-14T10:11:25.481Z,94028.00
2023-06-14T10:12:25.686Z,94028.00
2023-06-14T10:13:25.539Z,94026.00
2023-06-14T10:14:25.532Z,94026.00
2023-06-14T10:15:25.525Z,94020.00
2023-06-14T10:16:25.585Z,94022.00
2023-06-14T10:17:25.705Z,94017.00
2023-06-14T10:18:25.603Z,94015.00
2023-06-14T10:19:25.649Z,94011.00
2023-06-14T10:20:25.666Z,94015.00
2023-06-14T10:21:27.613Z,94013.00
2023-06-14T10:22:26.167Z,94018.00
2023-06-14T10:23:25.864Z,94015.00
2023-06-14T10:24:25.945Z,94015.00
2023-06-14T10:25:25.975Z,94013.00
2023-06-14T10:26:26.086Z,94013.00
2023-06-14T10:27:26.237Z,94015.00
2023-06-14T10:28:26.179Z,94018.00
2023-06-14T10:29:26.193Z,94011.00
2023-06-14T10:30:26.212Z,94013.00
2023-06-14T10:31:26.305Z,94011.00
2023-06-14T10:32:26.410Z,94009.00
2023-06-14T10:33:26.364Z,94007.00
2023-06-14T10:34:26.431Z,94009.00
2023-06-14T10:35:26.476Z,94007.00
2023-06-14T10:36:26.496Z,94005.00
2023-06-14T10:37:26.550Z,94001.00
2023-06-14T10:38:26.577Z,94001.00
2023-06-14T10:39:26.648Z,94001.00
2023-06-14T10:40:26.677Z,93999.00
2023-06-14T10:41:26.698Z,93999.00
2023-06-14T10:42:26.749Z,93997.00
2023-06-14T10:43:26.807Z,93991.00
2023-06-14T10:44:26.831Z,93993.00
2023-06-14T10:45:26.902Z,93989.00
2023-06-14T10:46:27.039Z,93987.00
2023-06-14T10:47:27.035Z,93987.00
2023-06-14T10:48:26.989Z,93983.00
2023-06-14T10:49:27.014Z,93979.00
2023-06-14T10:50:27.058Z,93983.00
2023-06-14T10:51:27.098Z,93981.00
2023-06-14T10:52:27.143Z,93979.00
2023-06-14T10:53:27.304Z,93973.00
2023-06-14T10:54:27.232Z,93973.00
2023-06-14T10:55:27.283Z,93975.00
2023-06-14T10:56:27.315Z,93977.00
2023-06-14T10:57:27.667Z,93979.00
2023-06-14T10:58:27.361Z,93975.00
2023-06-14T10:59:27.410Z,93971.00
2023-06-14T11:00:28.012Z,93971.00
2023-06-14T11:01:27.524Z,93970.00
2023-06-14T11:02:27.662Z,93971.00
2023-06-14T11:03:27.566Z,93970.00
2023-06-14T11:04:27.544Z,93968.00
2023-06-14T11:05:27.597Z,93966.00
2023-06-14T11:06:27.599Z,93968.00
2023-06-14T11:07:27.632Z,93966.00
2023-06-14T11:08:27.681Z,93966.00
2023-06-14T11:09:27.694Z,93966.00
2023-06-14T11:10:27.759Z,93966.00
2023-06-14T11:11:27.776Z,93962.00
2023-06-14T11:12:28.167Z,93964.00
2023-06-14T11:13:28.413Z,93962.00
2023-06-14T11:14:27.860Z,93960.00
2023-06-14T11:15:27.932Z,93958.00
2023-06-14T11:16:27.941Z,93958.00
2023-06-14T11:17:28.205Z,93956.00
2023-06-14T11:18:27.957Z,93952.00
2023-06-14T11:19:27.959Z,93954.00
2023-06-14T11:20:28.895Z,93952.00
2023-06-14T11:21:28.179Z,93950.00
2023-06-14T11:22:28.181Z,93948.00
2023-06-14T11:23:28.045Z,93948.00
2023-06-14T11:24:28.183Z,93944.00
2023-06-14T11:25:28.116Z,93948.00
2023-06-14T11:26:28.112Z,93942.00
2023-06-14T11:27:28.134Z,93942.00
2023-06-14T11:28:28.174Z,93936.00
2023-06-14T11:29:28.194Z,93934.00
2023-06-14T11:30:28.224Z,93938.00
2023-06-14T11:31:28.325Z,93936.00
2023-06-14T11:32:28.283Z,93934.00
2023-06-14T11:33:28.276Z,93934.00
2023-06-14T11:34:28.301Z,93932.00
2023-06-14T11:35:28.319Z,93928.00
2023-06-14T11:36:28.323Z,93930.00
2023-06-14T11:37:28.359Z,93930.00
2023-06-14T11:38:28.376Z,93926.00
2023-06-14T11:39:28.369Z,93926.00
2023-06-14T11:40:28.393Z,93926.00
2023-06-14T11:41:28.417Z,93923.00
2023-06-14T11:42:28.447Z,93923.00
2023-06-14T11:43:28.468Z,93921.00
2023-06-14T11:44:28.479Z,93919.00
2023-06-14T11:45:28.484Z,93919.00
2023-06-14T11:46:28.525Z,93911.00